createdAt,value
2019-03-12T00:00:27.602Z,15.13
2019-03-12T00:02:55.957Z,22.73
2019-03-12T00:05:24.253Z,20.87
2019-03-12T00:07:52.539Z,17.60
2019-03-12T00:10:21.299Z,17.67
2019-03-12T00:12:49.698Z,18.00
2019-03-12T00:15:18.031Z,17.98
2019-03-12T00:17:46.319Z,18.40
2019-03-12T00:20:15.101Z,16.50
2019-03-12T00:22:43.389Z,23.40
2019-03-12T00:25:11.679Z,20.93
2019-03-12T00:27:39.984Z,18.63
2019-03-12T00:30:10.006Z,17.90
2019-03-12T00:32:38.558Z,15.17
2019-03-12T00:35:08.169Z,21.37
2019-03-12T00:37:36.454Z,18.77
2019-03-12T00:40:08.182Z,18.02
2019-03-12T00:42:36.467Z,19.90
2019-03-12T00:45:08.561Z,16.40
2019-03-12T00:47:36.855Z,17.30
2019-03-12T00:50:07.862Z,20.73
2019-03-12T00:52:36.203Z,16.83
2019-03-12T00:55:06.707Z,15.32
2019-03-12T00:57:35.012Z,18.83
2019-03-12T01:00:05.408Z,15.60
2019-03-12T01:02:33.828Z,17.00
2019-03-12T01:05:02.146Z,21.90
2019-03-12T01:07:30.529Z,19.30
2019-03-12T01:09:58.883Z,10.80
2019-03-12T01:12:27.183Z,16.03
2019-03-12T01:14:55.988Z,13.90
2019-03-12T01:17:24.299Z,11.03
2019-03-12T01:19:52.940Z,10.40
2019-03-12T01:22:21.389Z,11.30
2019-03-12T01:24:49.661Z,12.50
2019-03-12T01:27:17.966Z,10.97
2019-03-12T01:29:46.272Z,17.00
2019-03-12T01:32:16.250Z,16.37
2019-03-12T01:34:46.267Z,15.43
2019-03-12T01:37:14.653Z,11.95
2019-03-12T01:39:43.034Z,16.10
2019-03-12T01:42:11.339Z,17.83
2019-03-12T01:44:39.892Z,11.43
2019-03-12T01:47:08.367Z,15.13
2019-03-12T01:49:36.665Z,15.50
2019-03-12T01:52:05.174Z,13.60
2019-03-12T01:54:33.534Z,15.40
2019-03-12T01:57:01.832Z,17.30
2019-03-12T01:59:30.188Z,11.37
2019-03-12T02:01:58.914Z,17.87
2019-03-12T02:04:27.220Z,14.47
2019-03-12T02:06:58.201Z,15.57
2019-03-12T02:09:27.096Z,12.03
2019-03-12T02:11:55.481Z,9.13
2019-03-12T02:14:25.897Z,16.60
2019-03-12T02:16:54.268Z,11.50
2019-03-12T02:19:22.538Z,10.57
2019-03-12T02:21:50.822Z,11.93
2019-03-12T02:24:19.268Z,15.53
2019-03-12T02:26:47.563Z,15.70
2019-03-12T02:29:15.913Z,11.03
2019-03-12T02:31:44.397Z,14.20
2019-03-12T02:34:12.820Z,11.50
2019-03-12T02:36:41.459Z,8.00
2019-03-12T02:39:10.138Z,11.43
2019-03-12T02:41:38.442Z,13.37
2019-03-12T02:44:06.804Z,12.70
2019-03-12T02:46:35.168Z,16.10
2019-03-12T02:49:03.476Z,15.93
2019-03-12T02:51:31.815Z,16.90
2019-03-12T02:54:00.155Z,16.30
2019-03-12T02:56:28.442Z,12.83
2019-03-12T02:58:56.819Z,11.80
2019-03-12T03:01:25.095Z,14.07
2019-03-12T03:03:53.455Z,12.03
2019-03-12T03:06:32.314Z,14.68
2019-03-12T03:09:00.611Z,13.73
2019-03-12T03:11:28.943Z,17.70
2019-03-12T03:13:57.259Z,13.17
2019-03-12T03:16:25.614Z,15.27
2019-03-12T03:18:55.199Z,20.80
2019-03-12T03:21:23.478Z,12.37
2019-03-12T03:23:51.828Z,10.13
2019-03-12T03:26:20.196Z,12.33
2019-03-12T03:28:48.483Z,14.63
2019-03-12T03:31:16.786Z,18.65
2019-03-12T03:33:45.137Z,16.53
2019-03-12T03:36:13.872Z,12.88
2019-03-12T03:38:42.200Z,14.33
2019-03-12T03:41:10.479Z,13.73
2019-03-12T03:43:38.875Z,17.77
2019-03-12T03:46:07.222Z,23.47
2019-03-12T03:48:35.533Z,19.30
2019-03-12T03:51:04.470Z,15.37
2019-03-12T03:53:32.911Z,22.23
2019-03-12T03:56:01.185Z,17.63
2019-03-12T03:58:29.484Z,16.57
2019-03-12T04:00:57.888Z,13.97
2019-03-12T04:03:26.249Z,13.17
2019-03-12T04:05:54.612Z,14.97
2019-03-12T04:08:22.969Z,12.30
2019-03-12T04:10:51.311Z,18.50
2019-03-12T04:13:19.619Z,16.73
2019-03-12T04:15:47.997Z,16.17
2019-03-12T04:18:16.297Z,14.23
2019-03-12T04:20:44.723Z,16.83
2019-03-12T04:23:15.832Z,17.67
2019-03-12T04:25:43.044Z,16.73
2019-03-12T04:28:11.416Z,18.03
2019-03-12T04:30:39.777Z,15.00
2019-03-12T04:33:28.103Z,25.90
2019-03-12T04:35:56.389Z,11.77
2019-03-12T04:38:24.676Z,18.53
2019-03-12T04:40:52.974Z,12.70
2019-03-12T04:43:21.279Z,14.63
2019-03-12T04:45:49.553Z,19.37
2019-03-12T04:48:17.859Z,21.47
2019-03-12T04:50:46.133Z,18.93
2019-03-12T04:53:14.413Z,18.37
2019-03-12T04:55:42.721Z,22.33
2019-03-12T04:58:11.004Z,28.37
2019-03-12T05:00:39.307Z,21.00
2019-03-12T05:03:07.619Z,18.83
2019-03-12T05:05:35.906Z,20.67
2019-03-12T05:08:04.612Z,26.90
2019-03-12T05:10:32.920Z,17.90
2019-03-12T05:13:01.300Z,15.33
2019-03-12T05:15:29.737Z,17.73
2019-03-12T05:17:58.405Z,18.27
2019-03-12T05:20:27.045Z,18.17
2019-03-12T05:22:55.333Z,16.17
2019-03-12T05:25:23.641Z,18.73
2019-03-12T05:27:52.177Z,13.30
2019-03-12T05:30:21.022Z,16.77
2019-03-12T05:32:49.396Z,18.60
2019-03-12T05:35:17.742Z,15.63
2019-03-12T05:37:46.359Z,16.37
2019-03-12T05:40:16.581Z,20.83
2019-03-12T05:42:44.861Z,25.93
2019-03-12T05:45:17.529Z,19.23
2019-03-12T05:47:45.858Z,17.10
2019-03-12T05:50:15.793Z,18.73
2019-03-12T05:52:44.446Z,14.77
2019-03-12T05:55:16.341Z,10.83
2019-03-12T05:57:44.813Z,14.60
2019-03-12T06:00:21.682Z,14.93
2019-03-12T06:02:50.246Z,19.93
2019-03-12T06:05:18.822Z,16.47
2019-03-12T06:07:47.178Z,18.27
2019-03-12T06:10:16.326Z,14.87
2019-03-12T06:12:44.701Z,19.43
2019-03-12T06:15:15.569Z,10.90
2019-03-12T06:17:43.931Z,28.13
2019-03-12T06:20:16.604Z,13.73
2019-03-12T06:22:44.907Z,22.40
2019-03-12T06:25:14.144Z,15.93
2019-03-12T06:27:42.525Z,10.50
2019-03-12T06:30:18.446Z,18.98
2019-03-12T06:32:48.555Z,14.73
2019-03-12T06:35:36.960Z,16.20
2019-03-12T06:38:07.099Z,13.63
2019-03-12T06:40:37.035Z,15.93
2019-03-12T06:43:15.565Z,12.83
2019-03-12T06:45:51.080Z,19.97
2019-03-12T06:48:23.606Z,11.67
2019-03-12T06:51:11.610Z,22.67
2019-03-12T06:53:56.606Z,12.23
2019-03-12T06:56:35.170Z,14.87
2019-03-12T06:59:08.081Z,19.37
2019-03-12T07:01:50.262Z,21.33
2019-03-12T07:04:32.424Z,18.07
2019-03-12T07:07:17.606Z,14.97
2019-03-12T07:09:53.246Z,23.33
2019-03-12T07:12:31.794Z,12.53
2019-03-12T07:15:16.515Z,17.30
2019-03-12T07:17:49.005Z,14.33
2019-03-12T07:20:19.012Z,15.93
2019-03-12T07:22:54.439Z,15.63
2019-03-12T07:28:25.546Z,16.03
2019-03-12T07:31:04.670Z,19.83
2019-03-12T07:33:37.341Z,19.67
2019-03-12T07:36:09.933Z,17.27
2019-03-12T07:38:42.541Z,16.17
2019-03-12T07:41:26.515Z,21.83
2019-03-12T07:43:52.375Z,12.43
2019-03-12T07:46:38.862Z,13.30
2019-03-12T07:49:27.448Z,18.10
2019-03-12T07:51:57.438Z,15.17
2019-03-12T07:54:33.367Z,12.87
2019-03-12T07:57:03.320Z,21.87
2019-03-12T07:59:42.269Z,16.37
2019-03-12T08:02:28.529Z,12.23
2019-03-12T08:04:58.483Z,10.70
2019-03-12T08:07:28.545Z,18.00
2019-03-12T08:10:16.430Z,12.60
2019-03-12T08:13:11.668Z,13.30
2019-03-12T08:15:41.674Z,17.83
2019-03-12T08:18:14.382Z,12.40
2019-03-12T08:20:44.373Z,12.13
2019-03-12T08:23:22.966Z,10.10
2019-03-12T08:25:53.229Z,17.57
2019-03-12T08:28:29.033Z,16.37
2019-03-12T08:31:01.915Z,12.77
2019-03-12T08:33:34.283Z,17.07
2019-03-12T08:36:18.595Z,14.00
2019-03-12T08:38:57.000Z,13.40
2019-03-12T08:41:42.010Z,13.53
2019-03-12T08:44:12.008Z,15.95
2019-03-12T08:46:42.284Z,17.60
2019-03-12T08:49:23.857Z,12.30
2019-03-12T08:51:56.624Z,20.83
2019-03-12T08:54:29.769Z,10.60
2019-03-12T08:57:02.415Z,13.30
2019-03-12T08:59:35.980Z,23.93
2019-03-12T09:02:18.038Z,22.37
2019-03-12T09:04:56.997Z,16.53
2019-03-12T09:07:38.871Z,13.47
2019-03-12T09:10:13.608Z,11.43
2019-03-12T09:12:46.024Z,9.57
2019-03-12T09:15:20.816Z,12.70
2019-03-12T09:17:50.768Z,12.70
2019-03-12T09:20:36.931Z,11.63
2019-03-12T09:23:10.013Z,10.67
2019-03-12T09:25:58.159Z,13.47
2019-03-12T09:28:28.191Z,11.40
2019-03-12T09:31:04.142Z,9.83
2019-03-12T09:33:50.495Z,10.97
2019-03-12T09:36:36.915Z,9.00
2019-03-12T09:39:13.219Z,19.77
2019-03-12T09:41:43.207Z,18.85
2019-03-12T09:44:15.665Z,10.60
2019-03-12T09:46:48.487Z,13.80
2019-03-12T09:49:34.515Z,16.13
2019-03-12T09:52:04.437Z,14.20
2019-03-12T09:54:39.848Z,13.63
2019-03-12T09:57:22.412Z,9.87
2019-03-12T09:59:55.105Z,11.83
2019-03-12T10:02:27.696Z,8.63
2019-03-12T10:05:15.411Z,12.77
2019-03-12T10:07:48.097Z,11.60
2019-03-12T10:10:28.342Z,15.30
2019-03-12T10:12:58.255Z,10.67
2019-03-12T10:15:44.150Z,15.73
2019-03-12T10:18:22.764Z,13.87
2019-03-12T10:20:52.713Z,10.90
2019-03-12T10:23:22.738Z,15.93
2019-03-12T10:26:07.565Z,10.97
2019-03-12T10:28:37.590Z,13.37
2019-03-12T10:31:25.393Z,9.73
2019-03-12T10:34:01.314Z,13.10
2019-03-12T10:36:37.212Z,11.07
2019-03-12T10:40:00.383Z,15.03
2019-03-12T10:42:37.596Z,10.27
2019-03-12T10:45:25.478Z,15.27
2019-03-12T10:48:00.987Z,12.43
2019-03-12T10:50:29.831Z,8.00
2019-03-12T10:52:58.209Z,10.60
2019-03-12T10:55:26.957Z,16.20
2019-03-12T10:57:55.321Z,10.57
2019-03-12T11:00:23.698Z,7.73
2019-03-12T11:02:51.981Z,6.50
2019-03-12T11:05:21.911Z,10.37
2019-03-12T11:07:50.210Z,9.53
2019-03-12T11:10:19.819Z,8.23
2019-03-12T11:12:48.175Z,8.47
2019-03-12T11:15:17.051Z,9.13
2019-03-12T11:17:50.094Z,14.63
2019-03-12T11:20:25.078Z,13.08
2019-03-12T11:22:53.717Z,12.20
2019-03-12T11:25:27.745Z,10.98
2019-03-12T11:27:52.293Z,6.93
2019-03-12T11:30:22.447Z,11.80
2019-03-12T11:32:50.776Z,8.83
2019-03-12T11:35:19.154Z,8.43
2019-03-12T11:37:47.535Z,8.97
2019-03-12T11:40:19.028Z,9.70
2019-03-12T11:42:47.489Z,9.73
2019-03-12T11:45:18.474Z,9.43
2019-03-12T11:47:45.916Z,6.23
2019-03-12T11:50:20.434Z,9.97
2019-03-12T11:52:55.594Z,9.10
2019-03-12T11:55:19.437Z,11.63
2019-03-12T11:57:48.554Z,7.17
2019-03-12T12:00:22.162Z,11.20
2019-03-12T12:02:59.849Z,9.80
2019-03-12T12:05:20.755Z,7.33
2019-03-12T12:07:49.381Z,5.20
2019-03-12T12:10:18.961Z,12.07
2019-03-12T12:12:47.295Z,7.47
2019-03-12T12:15:16.167Z,8.63
2019-03-12T12:17:44.448Z,8.77
2019-03-12T12:20:28.442Z,11.12
2019-03-12T12:22:46.340Z,8.67
2019-03-12T12:25:19.234Z,6.22
2019-03-12T12:27:47.618Z,8.73
2019-03-12T12:30:24.049Z,8.00
2019-03-12T12:32:52.332Z,10.87
2019-03-12T12:35:20.628Z,9.23
2019-03-12T12:37:49.083Z,11.03
2019-03-12T12:40:21.841Z,15.27
2019-03-12T12:42:51.845Z,15.10
2019-03-12T12:45:26.178Z,16.97
2019-03-12T12:47:54.536Z,17.13
2019-03-12T12:50:24.091Z,8.30
2019-03-12T12:52:52.388Z,9.57
2019-03-12T12:55:20.664Z,7.63
2019-03-12T12:57:49.290Z,12.40
2019-03-12T13:00:22.765Z,12.18
2019-03-12T13:02:51.070Z,14.03
2019-03-12T13:05:19.379Z,9.05
2019-03-12T13:07:47.660Z,10.63
2019-03-12T13:10:26.925Z,11.20
2019-03-12T13:12:55.279Z,11.30
2019-03-12T13:15:23.573Z,18.03
2019-03-12T13:17:51.865Z,9.33
2019-03-12T13:20:20.626Z,7.43
2019-03-12T13:22:49.210Z,11.10
2019-03-12T13:25:18.711Z,12.37
2019-03-12T13:27:46.994Z,16.77
2019-03-12T13:30:22.629Z,14.60
2019-03-12T13:32:51.030Z,10.80
2019-03-12T13:35:19.659Z,9.70
2019-03-12T13:37:49.029Z,11.10
2019-03-12T13:40:21.207Z,9.87
2019-03-12T13:42:50.354Z,14.60
2019-03-12T13:45:24.608Z,22.67
2019-03-12T13:47:53.588Z,9.80
2019-03-12T13:50:21.933Z,11.27
2019-03-12T13:52:50.294Z,15.60
2019-03-12T13:55:18.769Z,11.70
2019-03-12T13:57:47.425Z,9.50
2019-03-12T14:00:25.625Z,12.73
2019-03-12T14:02:54.288Z,11.47
2019-03-12T14:05:22.595Z,8.90
2019-03-12T14:07:50.890Z,7.47
2019-03-12T14:10:24.260Z,14.03
2019-03-12T14:12:53.296Z,14.40
2019-03-12T14:15:31.013Z,9.23
2019-03-12T14:17:59.869Z,12.27
2019-03-12T14:20:42.255Z,10.50
2019-03-12T14:23:13.666Z,11.13
2019-03-12T14:25:41.988Z,14.23
2019-03-12T14:28:10.375Z,8.97
2019-03-12T14:30:38.730Z,29.60
2019-03-12T14:33:07.013Z,17.50
2019-03-12T14:35:35.402Z,12.90
2019-03-12T14:38:04.325Z,10.87
2019-03-12T14:40:32.692Z,7.70
2019-03-12T14:43:00.984Z,6.07
2019-03-12T14:45:30.169Z,8.47
2019-03-12T14:47:58.456Z,13.13
2019-03-12T14:50:29.438Z,9.27
2019-03-12T14:53:12.439Z,11.77
2019-03-12T14:55:37.404Z,8.77
2019-03-12T14:58:05.798Z,9.13
2019-03-12T15:00:34.117Z,9.80
2019-03-12T15:03:02.422Z,10.80
2019-03-12T15:05:30.713Z,5.43
2019-03-12T15:07:59.041Z,10.13
2019-03-12T15:10:27.333Z,10.87
2019-03-12T15:12:55.666Z,6.33
2019-03-12T15:15:23.960Z,12.60
2019-03-12T15:17:52.321Z,7.83
2019-03-12T15:20:20.641Z,10.20
2019-03-12T15:22:49.117Z,9.87
2019-03-12T15:25:17.513Z,6.50
2019-03-12T15:27:45.861Z,12.03
2019-03-12T15:30:17.489Z,11.45
2019-03-12T15:32:45.857Z,7.23
2019-03-12T15:35:14.721Z,7.53
2019-03-12T15:37:43.403Z,10.30
2019-03-12T15:40:12.938Z,5.47
2019-03-12T15:42:41.411Z,12.03
2019-03-12T15:45:11.917Z,14.93
2019-03-12T15:47:40.283Z,10.40
2019-03-12T15:50:11.427Z,9.47
2019-03-12T15:52:39.906Z,10.30
2019-03-12T15:55:08.570Z,12.97
2019-03-12T15:57:36.855Z,7.80
2019-03-12T16:00:11.678Z,4.00
2019-03-12T16:02:39.965Z,15.47
2019-03-12T16:05:08.983Z,9.47
2019-03-12T16:07:37.364Z,9.77
2019-03-12T16:10:19.541Z,10.80
2019-03-12T16:12:47.500Z,10.70
2019-03-12T16:15:17.307Z,10.70
2019-03-12T16:17:45.592Z,8.27
2019-03-12T16:20:20.108Z,7.57
2019-03-12T16:22:48.417Z,8.57
2019-03-12T16:25:16.832Z,7.00
2019-03-12T16:27:45.201Z,12.33
2019-03-12T16:30:15.338Z,9.40
2019-03-12T16:32:43.678Z,12.13
2019-03-12T16:35:12.065Z,10.63
2019-03-12T16:37:40.394Z,11.53
2019-03-12T16:40:19.257Z,13.47
2019-03-12T16:42:47.609Z,7.20
2019-03-12T16:45:17.856Z,12.87
2019-03-12T16:47:46.142Z,9.43
2019-03-12T16:50:15.858Z,7.13
2019-03-12T16:52:44.238Z,7.27
2019-03-12T16:55:17.115Z,5.42
2019-03-12T16:57:45.666Z,11.97
2019-03-12T17:00:17.910Z,8.40
2019-03-12T17:02:46.268Z,8.73
2019-03-12T17:05:14.643Z,8.20
2019-03-12T17:07:43.070Z,9.30
2019-03-12T17:10:15.819Z,7.20
2019-03-12T17:12:46.113Z,10.07
2019-03-12T17:15:19.889Z,7.73
2019-03-12T17:17:48.258Z,8.47
2019-03-12T17:20:16.913Z,7.40
2019-03-12T17:22:45.207Z,10.37
2019-03-12T17:25:15.589Z,12.80
2019-03-12T17:27:43.973Z,11.13
2019-03-12T17:30:22.883Z,7.07
2019-03-12T17:32:51.211Z,8.10
2019-03-12T17:35:35.149Z,14.83
2019-03-12T17:38:03.511Z,10.10
2019-03-12T17:40:31.944Z,9.90
2019-03-12T17:43:00.357Z,6.60
2019-03-12T17:45:28.845Z,7.97
2019-03-12T17:47:57.203Z,8.70
2019-03-12T17:50:25.550Z,7.13
2019-03-12T17:52:53.866Z,11.63
2019-03-12T17:55:22.193Z,11.53
2019-03-12T17:57:51.179Z,7.00
2019-03-12T18:00:29.943Z,8.33
2019-03-12T18:02:58.337Z,6.23
2019-03-12T18:05:26.630Z,9.83
2019-03-12T18:07:54.920Z,6.97
2019-03-12T18:10:23.298Z,6.97
2019-03-12T18:12:51.630Z,7.83
2019-03-12T18:15:39.378Z,12.03
2019-03-12T18:18:07.882Z,11.03
2019-03-12T18:20:36.325Z,8.67
2019-03-12T18:23:05.542Z,9.03
2019-03-12T18:25:35.982Z,7.67
2019-03-12T18:28:05.662Z,8.23
2019-03-12T18:30:34.075Z,13.70
2019-03-12T18:33:02.428Z,6.57
2019-03-12T18:35:30.818Z,9.27
2019-03-12T18:37:59.159Z,7.30
2019-03-12T18:40:29.577Z,8.17
2019-03-12T18:42:58.127Z,11.53
2019-03-12T18:45:28.457Z,7.53
2019-03-12T18:47:58.631Z,11.17
2019-03-12T18:50:27.176Z,9.93
2019-03-12T18:52:55.532Z,8.70
2019-03-12T18:55:33.083Z,9.53
2019-03-12T18:58:02.371Z,8.65
2019-03-12T19:00:31.748Z,12.50
2019-03-12T19:03:00.230Z,8.77
2019-03-12T19:05:33.801Z,10.33
2019-03-12T19:08:02.110Z,10.07
2019-03-12T19:10:30.593Z,6.73
2019-03-12T19:12:58.949Z,12.63
2019-03-12T19:15:27.236Z,7.37
2019-03-12T19:17:55.621Z,8.73
2019-03-12T19:20:23.992Z,11.70
2019-03-12T19:22:57.416Z,8.03
2019-03-12T19:25:30.738Z,10.17
2019-03-12T19:28:00.447Z,3.93
2019-03-12T19:30:29.075Z,2.97
2019-03-12T19:33:05.166Z,4.03
2019-03-12T19:35:34.514Z,4.13
2019-03-12T19:38:03.925Z,2.07
2019-03-12T19:40:44.588Z,1.03
2019-03-12T19:43:12.991Z,5.65
2019-03-12T19:45:41.363Z,2.70
2019-03-12T19:48:09.650Z,3.00
2019-03-12T19:50:37.965Z,2.47
2019-03-12T19:53:06.821Z,1.05
2019-03-12T19:55:44.327Z,1.03
2019-03-12T19:58:12.658Z,2.47
2019-03-12T20:00:41.067Z,6.03
2019-03-12T20:03:13.365Z,1.65
2019-03-12T20:05:39.527Z,5.13
2019-03-12T20:08:07.903Z,2.97
2019-03-12T20:11:08.522Z,1.77
2019-03-12T20:14:09.200Z,2.97
2019-03-12T20:17:08.174Z,2.37
2019-03-12T20:19:53.948Z,0.73
2019-03-12T20:22:37.116Z,1.20
2019-03-12T20:25:17.655Z,4.40
2019-03-12T20:28:22.730Z,2.43
2019-03-12T20:31:14.416Z,2.90
2019-03-12T20:34:09.577Z,1.87
2019-03-12T20:37:04.182Z,1.70
2019-03-12T20:40:08.926Z,5.07
2019-03-12T20:42:55.311Z,2.13
2019-03-12T20:45:52.463Z,3.43
2019-03-12T20:48:49.625Z,1.63
2019-03-12T20:51:51.739Z,4.23
2019-03-12T20:54:43.298Z,4.10
2019-03-12T20:57:37.736Z,3.80
2019-03-12T21:00:42.608Z,1.57
2019-03-12T21:03:28.754Z,3.07
2019-03-12T21:06:28.978Z,1.53
2019-03-12T21:09:35.957Z,2.60
2019-03-12T21:12:36.375Z,3.50
2019-03-12T21:15:16.813Z,2.70
2019-03-12T21:17:59.882Z,3.80
2019-03-12T21:21:04.868Z,4.73
2019-03-12T21:24:01.330Z,5.43
2019-03-12T21:26:54.483Z,5.70
2019-03-12T21:29:42.480Z,5.87
2019-03-12T21:32:12.620Z,6.37
2019-03-12T21:34:41.138Z,6.12
2019-03-12T21:37:09.640Z,6.40
2019-03-12T21:39:37.962Z,5.73
2019-03-12T21:42:06.333Z,4.67
2019-03-12T21:44:35.060Z,6.70
2019-03-12T21:47:03.539Z,3.27
2019-03-12T21:49:31.908Z,9.43
2019-03-12T21:52:00.453Z,5.07
2019-03-12T21:54:29.134Z,5.53
2019-03-12T21:56:57.514Z,9.93
2019-03-12T21:59:25.931Z,5.73
2019-03-12T22:01:54.313Z,8.17
2019-03-12T22:04:22.697Z,6.33
2019-03-12T22:06:51.941Z,12.87
2019-03-12T22:09:20.315Z,9.83
2019-03-12T22:11:48.700Z,3.20
2019-03-12T22:14:17.210Z,5.00
2019-03-12T22:16:47.174Z,3.90
2019-03-12T22:19:15.572Z,6.30
2019-03-12T22:21:45.563Z,6.30
2019-03-12T22:24:15.572Z,7.83
2019-03-12T22:26:48.628Z,5.17
2019-03-12T22:29:16.915Z,4.53
2019-03-12T22:31:45.268Z,4.30
2019-03-12T22:34:13.585Z,3.47
2019-03-12T22:36:42.221Z,3.63
2019-03-12T22:39:10.570Z,6.17
2019-03-12T22:41:38.882Z,3.70
2019-03-12T22:44:07.257Z,6.90
2019-03-12T22:46:35.633Z,5.93
2019-03-12T22:49:04.621Z,8.63
2019-03-12T22:51:32.916Z,5.47
2019-03-12T22:54:01.225Z,6.80
2019-03-12T22:56:29.577Z,7.83
2019-03-12T22:58:58.267Z,8.27
2019-03-12T23:01:26.563Z,8.93
2019-03-12T23:03:54.855Z,6.40
2019-03-12T23:06:23.149Z,6.35
2019-03-12T23:08:51.443Z,8.70
2019-03-12T23:11:19.804Z,11.40
2019-03-12T23:13:48.242Z,5.80
2019-03-12T23:16:16.983Z,4.90
2019-03-12T23:18:45.309Z,6.07
2019-03-12T23:21:13.635Z,8.95
2019-03-12T23:23:41.910Z,4.33
2019-03-12T23:26:10.211Z,8.70
2019-03-12T23:28:38.514Z,6.13
2019-03-12T23:31:06.908Z,8.23
2019-03-12T23:33:35.225Z,5.57
2019-03-12T23:36:03.516Z,8.13
2019-03-12T23:38:31.963Z,10.37
2019-03-12T23:41:00.310Z,9.10
2019-03-12T23:43:28.589Z,5.33
2019-03-12T23:45:56.889Z,7.53
2019-03-12T23:48:25.526Z,10.40
2019-03-12T23:50:53.878Z,10.87
2019-03-12T23:53:22.188Z,7.97
2019-03-12T23:55:50.481Z,10.77
2019-03-12T23:58:18.757Z,7.20
